الصفحة الرئيسية
METAR-TAF:

METAR-TAF

مطار :

مطار جناح الدولي

كراتشي, باكستان

دائرة عرض: 24-54N, خط طول: 067-08E, ارتفاع: 21 متر

مراقبة الطقس الحالي

تاريخ ووقت الإصدار 28 دقيقة قبل الساعة 12:25UTC
ريح 12 عقدة من الغرب/الجنوب الغربي
درجة الحرارة 32°درجة مئوية
الرطوبة 34%
ضغط 1010 hPa
الرؤية: 8000 متر

METAR: OPKC 101225Z 24012KT 8000 NSC 32/14 Q1010 NOSIG

زمن: 17:53 (12:53 UTC)

توقعات

تاريخ ووقت الإصدار 3ساعات و 23 دقيقة قبل الساعة 09:30UTC
التوقعات صالحة من10 الساعة 12 UTC إلى 10 الساعة 21 UTC
ريح 7 عقدة من الغرب/الجنوب الغربي تتزايد حتى 17 عقدة
الرؤية: 6000 متر
من 10 الساعة 1800 UTC
ريح 10 عقدة من الغرب
الرؤية: 6000 متر

TAF: OPKC 100930Z 1012/1021 25007G17KT 6000 NSC FM101800 28010KT 6000 NSC

أرصاد الطقس والتوقعات من أكثر من 4000 مطار (تقارير الطقس للمطار METAR والتنبؤ بالطقس بالمطارTAF).

المحطات المتاحة هي النقط الصفراء والحمراء على الخريطة.

حرك المؤشر فوق النقطة لمعرفة اسم المحطة.

ثم انقر لمعرفة أرصاد وتوقعات الطقس.

لتغيير الخارطة: اضغط على الأزرار الخضراء مع رمز الصليب الأسود للتكبير. على الزر الأخضر مع شرطة للتصغير، أو على الأسهم الخضراء للخرائط المجاورة.


METAR-TAF: